createdAt,value
2018-01-13T00:00:54.560Z,1.9
2018-01-13T00:01:54.053Z,1.87
2018-01-13T00:02:53.820Z,1.78
2018-01-13T00:03:54.455Z,1.84
2018-01-13T00:04:54.601Z,1.82
2018-01-13T00:05:54.752Z,1.76
2018-01-13T00:06:54.926Z,1.82
2018-01-13T00:07:54.536Z,1.76
2018-01-13T00:08:54.300Z,1.75
2018-01-13T00:09:54.407Z,1.84
2018-01-13T00:10:54.935Z,1.86
2018-01-13T00:11:54.460Z,1.86
2018-01-13T00:12:54.195Z,1.82
2018-01-13T00:13:54.697Z,1.78
2018-01-13T00:14:55.470Z,1.83
2018-01-13T00:15:56.254Z,1.84
2018-01-13T00:16:55.527Z,1.76
2018-01-13T00:17:55.383Z,1.72
2018-01-13T00:18:54.860Z,1.66
2018-01-13T00:19:55.424Z,1.71
2018-01-13T00:20:55.164Z,1.69
2018-01-13T00:21:55.500Z,1.69
2018-01-13T00:22:54.887Z,1.66
2018-01-13T00:23:55.746Z,1.66
2018-01-13T00:24:55.639Z,1.69
2018-01-13T00:25:55.180Z,1.74
2018-01-13T00:26:55.712Z,1.78
2018-01-13T00:27:55.187Z,1.74
2018-01-13T00:28:56.152Z,1.74
2018-01-13T00:29:55.804Z,1.65
2018-01-13T00:30:56.114Z,1.74
2018-01-13T00:31:56.092Z,1.82
2018-01-13T00:32:56.148Z,1.66
2018-01-13T00:33:55.600Z,1.71
2018-01-13T00:34:55.911Z,1.68
2018-01-13T00:35:56.171Z,1.78
2018-01-13T00:36:56.469Z,1.69
2018-01-13T00:37:56.523Z,1.72
2018-01-13T00:38:56.858Z,1.69
2018-01-13T00:39:57.165Z,1.71
2018-01-13T00:40:56.631Z,1.78
2018-01-13T00:41:56.728Z,1.75
2018-01-13T00:42:56.690Z,1.84
2018-01-13T00:43:56.714Z,1.76
2018-01-13T00:44:57.245Z,1.71
2018-01-13T00:45:57.042Z,1.74
2018-01-13T00:46:57.256Z,1.68
2018-01-13T00:47:56.771Z,1.71
2018-01-13T00:48:57.183Z,1.78
2018-01-13T00:49:57.319Z,1.68
2018-01-13T00:50:57.721Z,1.75
2018-01-13T00:51:57.852Z,1.68
2018-01-13T00:52:57.800Z,1.78
2018-01-13T00:53:57.820Z,1.74
2018-01-13T00:54:57.851Z,1.68
2018-01-13T00:55:58.271Z,1.72
2018-01-13T00:56:58.350Z,1.78
2018-01-13T00:57:58.026Z,1.74
2018-01-13T00:58:58.483Z,1.71
2018-01-13T00:59:58.122Z,1.78
2018-01-13T01:00:58.440Z,1.72
2018-01-13T01:01:58.902Z,1.72
2018-01-13T01:02:59.064Z,1.69
2018-01-13T01:03:58.759Z,1.72
2018-01-13T01:04:59.284Z,1.72
2018-01-13T01:05:59.603Z,1.69
2018-01-13T01:06:59.331Z,1.76
2018-01-13T01:08:00.166Z,1.74
2018-01-13T01:08:59.386Z,1.68
2018-01-13T01:10:01.270Z,1.72
2018-01-13T01:10:59.760Z,1.74
2018-01-13T01:12:00.532Z,1.71
2018-01-13T01:12:59.825Z,1.69
2018-01-13T01:13:59.513Z,1.69
2018-01-13T01:14:59.534Z,1.68
2018-01-13T01:15:59.757Z,1.65
2018-01-13T01:16:59.599Z,1.74
2018-01-13T01:17:59.985Z,1.74
2018-01-13T01:18:59.957Z,1.68
2018-01-13T01:20:00.155Z,1.76
2018-01-13T01:20:59.790Z,1.78
2018-01-13T01:21:59.981Z,1.76
2018-01-13T01:22:59.899Z,1.69
2018-01-13T01:24:00.318Z,1.71
2018-01-13T01:25:00.316Z,1.69
2018-01-13T01:26:00.703Z,1.75
2018-01-13T01:27:00.802Z,1.76
2018-01-13T01:28:00.900Z,1.69
2018-01-13T01:29:00.693Z,1.64
2018-01-13T01:30:00.776Z,1.66
2018-01-13T01:31:00.536Z,1.64
2018-01-13T01:32:00.792Z,1.61
2018-01-13T01:33:00.242Z,1.66
2018-01-13T01:34:00.805Z,1.64
2018-01-13T01:35:00.719Z,1.64
2018-01-13T01:36:00.462Z,1.74
2018-01-13T01:37:01.280Z,1.6
2018-01-13T01:38:01.110Z,1.61
2018-01-13T01:39:00.805Z,1.68
2018-01-13T01:40:01.380Z,1.61
2018-01-13T01:41:01.019Z,1.72
2018-01-13T01:42:01.592Z,1.68
2018-01-13T01:43:02.629Z,1.65
2018-01-13T01:44:02.004Z,1.64
2018-01-13T01:45:02.008Z,1.65
2018-01-13T01:46:01.591Z,1.65
2018-01-13T01:47:01.888Z,1.61
2018-01-13T01:48:02.166Z,1.65
2018-01-13T01:49:02.406Z,1.65
2018-01-13T01:50:02.746Z,1.79
2018-01-13T01:51:02.741Z,1.66
2018-01-13T01:52:02.712Z,1.72
2018-01-13T01:53:02.746Z,1.69
2018-01-13T01:54:02.922Z,1.76
2018-01-13T01:55:03.024Z,1.68
2018-01-13T01:56:03.609Z,1.65
2018-01-13T01:57:03.648Z,1.74
2018-01-13T01:58:03.481Z,1.72
2018-01-13T01:59:03.886Z,1.66
2018-01-13T02:00:18.019Z,1.68
2018-01-13T02:01:03.494Z,1.75
2018-01-13T02:02:03.887Z,1.72
2018-01-13T02:03:04.379Z,1.69
2018-01-13T02:04:04.557Z,1.72
2018-01-13T02:05:05.401Z,1.68
2018-01-13T02:06:05.123Z,1.71
2018-01-13T02:07:05.555Z,1.69
2018-01-13T02:08:05.448Z,1.61
2018-01-13T02:09:05.906Z,1.68
2018-01-13T02:10:06.033Z,1.64
2018-01-13T02:11:06.047Z,1.61
2018-01-13T02:12:06.048Z,1.61
2018-01-13T02:13:06.486Z,1.61
2018-01-13T02:14:06.262Z,1.69
2018-01-13T02:15:06.363Z,1.57
2018-01-13T02:16:06.310Z,1.64
2018-01-13T02:17:07.777Z,1.64
2018-01-13T02:18:07.135Z,1.68
2018-01-13T02:19:07.155Z,1.65
2018-01-13T02:20:07.275Z,1.57
2018-01-13T02:21:07.227Z,1.68
2018-01-13T02:22:07.209Z,1.64
2018-01-13T02:23:07.789Z,1.64
2018-01-13T02:24:07.758Z,1.57
2018-01-13T02:25:07.617Z,1.66
2018-01-13T02:26:07.875Z,1.69
2018-01-13T02:27:08.195Z,1.56
2018-01-13T02:28:08.628Z,1.64
2018-01-13T02:29:08.637Z,1.65
2018-01-13T02:30:08.778Z,1.61
2018-01-13T02:31:08.968Z,1.56
2018-01-13T02:32:08.465Z,1.68
2018-01-13T02:33:08.768Z,1.64
2018-01-13T02:34:09.237Z,1.65
2018-01-13T02:35:09.518Z,1.54
2018-01-13T02:36:09.028Z,1.65
2018-01-13T02:37:09.392Z,1.6
2018-01-13T02:38:09.525Z,1.61
2018-01-13T02:39:09.902Z,1.58
2018-01-13T02:40:09.802Z,1.68
2018-01-13T02:41:10.201Z,1.66
2018-01-13T02:42:10.589Z,1.61
2018-01-13T02:43:10.990Z,1.56
2018-01-13T02:44:11.161Z,1.65
2018-01-13T02:45:11.161Z,1.64
2018-01-13T02:46:10.887Z,1.65
2018-01-13T02:47:11.302Z,1.64
2018-01-13T02:48:11.338Z,1.64
2018-01-13T02:49:11.048Z,1.72
2018-01-13T02:50:11.375Z,1.66
2018-01-13T02:51:11.812Z,1.64
2018-01-13T02:52:12.451Z,1.65
2018-01-13T02:53:12.221Z,1.56
2018-01-13T02:54:12.099Z,1.61
2018-01-13T02:55:12.107Z,1.66
2018-01-13T02:56:12.359Z,1.6
2018-01-13T02:57:12.573Z,1.57
2018-01-13T02:58:13.024Z,1.65
2018-01-13T02:59:12.924Z,1.56
2018-01-13T03:00:28.166Z,1.54
2018-01-13T03:01:12.820Z,1.65
2018-01-13T03:02:12.739Z,1.64
2018-01-13T03:03:12.995Z,1.66
2018-01-13T03:04:13.065Z,1.64
2018-01-13T03:05:13.401Z,1.57
2018-01-13T03:06:13.066Z,1.58
2018-01-13T03:07:12.686Z,1.57
2018-01-13T03:08:13.672Z,1.65
2018-01-13T03:09:13.820Z,1.58
2018-01-13T03:10:13.598Z,1.57
2018-01-13T03:11:13.839Z,1.6
2018-01-13T03:12:13.506Z,1.58
2018-01-13T03:13:13.115Z,1.54
2018-01-13T03:14:13.409Z,1.64
2018-01-13T03:15:13.366Z,1.58
2018-01-13T03:16:13.925Z,1.61
2018-01-13T03:17:13.552Z,1.6
2018-01-13T03:18:13.579Z,1.64
2018-01-13T03:19:13.636Z,1.57
2018-01-13T03:20:13.824Z,1.58
2018-01-13T03:21:13.811Z,1.61
2018-01-13T03:22:14.097Z,1.57
2018-01-13T03:23:14.225Z,1.6
2018-01-13T03:24:14.448Z,1.58
2018-01-13T03:25:14.205Z,1.58
2018-01-13T03:26:13.988Z,1.58
2018-01-13T03:27:14.587Z,1.51
2018-01-13T03:28:14.251Z,1.57
2018-01-13T03:29:14.251Z,1.56
2018-01-13T03:30:14.537Z,1.57
2018-01-13T03:31:14.388Z,1.47
2018-01-13T03:32:14.818Z,1.48
2018-01-13T03:33:14.854Z,1.46
2018-01-13T03:34:15.091Z,1.51
2018-01-13T03:35:14.841Z,1.46
2018-01-13T03:36:15.090Z,1.54
2018-01-13T03:37:15.689Z,1.53
2018-01-13T03:38:14.970Z,1.47
2018-01-13T03:39:15.264Z,1.56
2018-01-13T03:40:15.098Z,1.46
2018-01-13T03:41:15.451Z,1.48
2018-01-13T03:42:15.773Z,1.47
2018-01-13T03:43:15.909Z,1.57
2018-01-13T03:44:16.178Z,1.48
2018-01-13T03:45:16.268Z,1.48
2018-01-13T03:46:16.509Z,1.53
2018-01-13T03:47:16.222Z,1.53
2018-01-13T03:48:16.816Z,1.57
2018-01-13T03:49:17.143Z,1.53
2018-01-13T03:50:17.425Z,1.47
2018-01-13T03:51:16.559Z,1.47
2018-01-13T03:52:16.836Z,1.53
2018-01-13T03:53:17.040Z,1.47
2018-01-13T03:54:17.152Z,1.51
2018-01-13T03:55:17.506Z,1.42
2018-01-13T03:56:17.125Z,1.42
2018-01-13T03:57:17.263Z,1.44
2018-01-13T03:58:17.502Z,1.44
2018-01-13T03:59:17.488Z,1.46
2018-01-13T04:00:22.866Z,1.42
2018-01-13T04:01:22.671Z,1.46
2018-01-13T04:02:23.166Z,1.44
2018-01-13T04:03:22.749Z,1.42
2018-01-13T04:04:23.110Z,1.42
2018-01-13T04:05:23.062Z,1.44
2018-01-13T04:06:23.904Z,1.42
2018-01-13T04:07:23.105Z,1.44
2018-01-13T04:08:23.370Z,1.46
2018-01-13T04:09:22.865Z,1.4
2018-01-13T04:10:23.575Z,1.48
2018-01-13T04:11:23.171Z,1.42
2018-01-13T04:12:23.700Z,1.46
2018-01-13T04:13:23.510Z,1.46
2018-01-13T04:14:24.026Z,1.35
2018-01-13T04:15:24.099Z,1.39
2018-01-13T04:16:25.402Z,1.44
2018-01-13T04:17:24.667Z,1.38
2018-01-13T04:18:24.443Z,1.32
2018-01-13T04:19:24.560Z,1.46
2018-01-13T04:20:25.095Z,1.4
2018-01-13T04:21:24.439Z,1.39
2018-01-13T04:22:24.840Z,1.39
2018-01-13T04:23:24.514Z,1.44
2018-01-13T04:24:25.107Z,1.35
2018-01-13T04:25:25.200Z,1.39
2018-01-13T04:26:24.691Z,1.39
2018-01-13T04:27:24.809Z,1.39
2018-01-13T04:28:24.976Z,1.4
2018-01-13T04:29:25.398Z,1.39
2018-01-13T04:30:25.543Z,1.4
2018-01-13T04:31:25.778Z,1.44
2018-01-13T04:32:25.333Z,1.35
2018-01-13T04:33:25.314Z,1.36
2018-01-13T04:34:25.768Z,1.38
2018-01-13T04:35:26.167Z,1.38
2018-01-13T04:36:26.363Z,1.39
2018-01-13T04:37:26.293Z,1.36
2018-01-13T04:38:26.152Z,1.38
2018-01-13T04:39:26.371Z,1.33
2018-01-13T04:40:27.050Z,1.39
2018-01-13T04:41:27.011Z,1.33
2018-01-13T04:42:27.995Z,1.4
2018-01-13T04:43:27.644Z,1.38
2018-01-13T04:44:27.388Z,1.32
2018-01-13T04:45:27.452Z,1.38
2018-01-13T04:46:27.859Z,1.4
2018-01-13T04:47:27.144Z,1.46
2018-01-13T04:48:27.617Z,1.35
2018-01-13T04:49:27.416Z,1.38
2018-01-13T04:50:27.728Z,1.38
2018-01-13T04:51:27.841Z,1.36
2018-01-13T04:52:27.842Z,1.4
2018-01-13T04:53:27.907Z,1.4
2018-01-13T04:54:28.340Z,1.26
2018-01-13T04:55:28.753Z,1.42
2018-01-13T04:56:28.997Z,1.38
2018-01-13T04:57:28.743Z,1.38
2018-01-13T04:58:28.632Z,1.39
2018-01-13T04:59:29.032Z,1.38
2018-01-13T05:00:29.174Z,1.42
2018-01-13T05:01:28.783Z,1.39
2018-01-13T05:02:29.185Z,1.38
2018-01-13T05:03:29.499Z,1.3
2018-01-13T05:04:28.977Z,1.38
2018-01-13T05:05:29.606Z,1.4
2018-01-13T05:06:29.622Z,1.4
2018-01-13T05:07:30.166Z,1.39
2018-01-13T05:08:30.745Z,1.33
2018-01-13T05:09:30.430Z,1.44
2018-01-13T05:10:30.050Z,1.39
2018-01-13T05:11:30.425Z,1.36
2018-01-13T05:12:30.299Z,1.39
2018-01-13T05:13:30.783Z,1.28
2018-01-13T05:14:30.519Z,1.38
2018-01-13T05:15:30.803Z,1.4
2018-01-13T05:16:31.484Z,1.38
2018-01-13T05:17:30.215Z,1.38
2018-01-13T05:18:30.982Z,1.38
2018-01-13T05:19:31.814Z,1.38
2018-01-13T05:20:31.410Z,1.4
2018-01-13T05:21:31.988Z,1.39
2018-01-13T05:22:31.005Z,1.4
2018-01-13T05:23:31.169Z,1.4
2018-01-13T05:24:31.274Z,1.36
2018-01-13T05:25:31.075Z,1.35
2018-01-13T05:26:31.345Z,1.36
2018-01-13T05:27:30.709Z,1.4
2018-01-13T05:28:31.083Z,1.38
2018-01-13T05:29:31.664Z,1.33
2018-01-13T05:30:30.815Z,1.3
2018-01-13T05:31:32.061Z,1.36
2018-01-13T05:32:32.003Z,1.39
2018-01-13T05:33:31.588Z,1.38
2018-01-13T05:34:31.954Z,1.35
2018-01-13T05:35:32.240Z,1.33
2018-01-13T05:36:32.018Z,1.33
2018-01-13T05:37:32.681Z,1.35
2018-01-13T05:38:32.467Z,1.39
2018-01-13T05:39:32.715Z,1.4
2018-01-13T05:40:33.329Z,1.39
2018-01-13T05:41:33.386Z,1.4
2018-01-13T05:42:33.791Z,1.38
2018-01-13T05:43:33.464Z,1.32
2018-01-13T05:44:33.541Z,1.39
2018-01-13T05:45:33.233Z,1.33
2018-01-13T05:46:33.795Z,1.35
2018-01-13T05:47:33.784Z,1.32
2018-01-13T05:48:33.525Z,1.39
2018-01-13T05:49:33.856Z,1.33
2018-01-13T05:50:33.854Z,1.3
2018-01-13T05:51:33.551Z,1.39
2018-01-13T05:52:33.586Z,1.39
2018-01-13T05:53:34.409Z,1.28
2018-01-13T05:54:34.150Z,1.35
2018-01-13T05:55:34.061Z,1.39
2018-01-13T05:56:34.292Z,1.4
2018-01-13T05:57:34.518Z,1.38
2018-01-13T05:58:33.925Z,1.38
2018-01-13T05:59:33.410Z,1.36
2018-01-13T06:00:33.490Z,1.3
2018-01-13T06:01:34.280Z,1.32
2018-01-13T06:02:34.064Z,1.38
2018-01-13T06:03:34.197Z,1.35
2018-01-13T06:04:34.209Z,1.38
2018-01-13T06:05:34.756Z,1.38
2018-01-13T06:06:34.560Z,1.33
2018-01-13T06:07:34.792Z,1.36
2018-01-13T06:08:34.842Z,1.33
2018-01-13T06:09:34.540Z,1.38
2018-01-13T06:10:35.083Z,1.36
2018-01-13T06:11:35.097Z,1.33
2018-01-13T06:12:34.834Z,1.32
2018-01-13T06:13:35.545Z,1.36
2018-01-13T06:14:35.022Z,1.3
2018-01-13T06:15:35.471Z,1.32
2018-01-13T06:16:35.756Z,1.33
2018-01-13T06:17:35.779Z,1.39
2018-01-13T06:18:36.589Z,1.35
2018-01-13T06:19:36.541Z,1.35
2018-01-13T06:20:36.944Z,1.35
2018-01-13T06:21:36.163Z,1.3
2018-01-13T06:22:36.516Z,1.4
2018-01-13T06:23:37.265Z,1.35
2018-01-13T06:24:36.853Z,1.28
2018-01-13T06:25:37.665Z,1.35
2018-01-13T06:26:37.386Z,1.35
2018-01-13T06:27:38.727Z,1.32
2018-01-13T06:28:37.637Z,1.33
2018-01-13T06:29:38.517Z,1.32
2018-01-13T06:30:38.763Z,1.35
2018-01-13T06:31:38.236Z,1.35
2018-01-13T06:32:38.289Z,1.42
2018-01-13T06:33:38.928Z,1.39
2018-01-13T06:34:38.394Z,1.35
2018-01-13T06:35:38.379Z,1.36
2018-01-13T06:36:38.684Z,1.33
2018-01-13T06:37:39.399Z,1.3
2018-01-13T06:38:38.964Z,1.3
2018-01-13T06:39:39.751Z,1.33
2018-01-13T06:40:39.116Z,1.4
2018-01-13T06:41:39.399Z,1.42
2018-01-13T06:42:53.652Z,1.36
2018-01-13T06:43:39.404Z,1.44
2018-01-13T06:44:39.240Z,1.36
2018-01-13T06:45:39.237Z,1.46
2018-01-13T06:46:39.779Z,1.36
2018-01-13T06:47:39.774Z,1.4
2018-01-13T06:48:39.983Z,1.42
2018-01-13T06:49:39.757Z,1.35
2018-01-13T06:50:39.694Z,1.42
2018-01-13T06:51:41.492Z,1.46
2018-01-13T06:52:40.401Z,1.46
2018-01-13T06:53:40.491Z,1.51
2018-01-13T06:54:40.778Z,1.44
2018-01-13T06:55:40.887Z,1.38
2018-01-13T06:56:40.544Z,1.38
2018-01-13T06:57:40.775Z,1.3
2018-01-13T06:58:41.040Z,1.4
2018-01-13T06:59:41.331Z,1.36
2018-01-13T07:00:40.518Z,1.26
2018-01-13T07:01:40.948Z,1.42
2018-01-13T07:02:41.073Z,1.4
2018-01-13T07:03:41.709Z,1.36
2018-01-13T07:04:41.455Z,1.4
2018-01-13T07:05:41.966Z,1.29
2018-01-13T07:06:42.410Z,1.42
2018-01-13T07:07:42.572Z,1.38
2018-01-13T07:08:41.985Z,1.28
2018-01-13T07:09:42.635Z,1.39
2018-01-13T07:10:42.482Z,1.46
2018-01-13T07:11:42.698Z,1.33
2018-01-13T07:12:43.125Z,1.35
2018-01-13T07:13:43.331Z,1.36
2018-01-13T07:14:43.823Z,1.42
2018-01-13T07:15:43.578Z,1.38
2018-01-13T07:16:43.631Z,1.3
2018-01-13T07:17:43.640Z,1.4
2018-01-13T07:18:43.864Z,1.38
2018-01-13T07:19:44.101Z,1.35
2018-01-13T07:20:43.803Z,1.39
2018-01-13T07:21:44.326Z,1.38
2018-01-13T07:22:44.584Z,1.35
2018-01-13T07:23:44.718Z,1.35
2018-01-13T07:24:44.525Z,1.33
2018-01-13T07:25:44.574Z,1.29
2018-01-13T07:26:44.548Z,1.24
2018-01-13T07:27:44.806Z,1.33
2018-01-13T07:28:45.140Z,1.35
2018-01-13T07:29:44.693Z,1.36
2018-01-13T07:30:44.760Z,1.32
2018-01-13T07:31:44.772Z,1.3
2018-01-13T07:33:00.541Z,1.32
2018-01-13T07:33:45.920Z,1.38
2018-01-13T07:34:45.854Z,1.35
2018-01-13T07:35:45.973Z,1.24
2018-01-13T07:36:45.648Z,1.35
2018-01-13T07:37:45.895Z,1.3
2018-01-13T07:38:45.608Z,1.29
2018-01-13T07:39:45.819Z,1.38
2018-01-13T07:40:46.396Z,1.24
2018-01-13T07:41:46.525Z,1.22
2018-01-13T07:42:47.008Z,1.22
2018-01-13T07:43:46.726Z,1.22
2018-01-13T07:44:47.267Z,1.26
2018-01-13T07:45:46.959Z,1.32
2018-01-13T07:46:47.105Z,1.29
2018-01-13T07:47:47.454Z,1.32
2018-01-13T07:48:47.156Z,1.3
2018-01-13T07:49:47.460Z,1.28
2018-01-13T07:50:47.286Z,1.24
2018-01-13T07:51:47.562Z,1.28
2018-01-13T07:52:47.619Z,1.3
2018-01-13T07:53:48.039Z,1.29
2018-01-13T07:54:47.936Z,1.3
2018-01-13T07:55:48.540Z,1.32
2018-01-13T07:56:48.389Z,1.32
2018-01-13T07:57:47.969Z,1.28
2018-01-13T07:58:48.229Z,1.26
2018-01-13T07:59:48.711Z,1.28
2018-01-13T08:01:02.772Z,1.29
2018-01-13T08:01:48.787Z,1.33
2018-01-13T08:02:48.106Z,1.28
2018-01-13T08:03:48.094Z,1.26
2018-01-13T08:04:49.116Z,1.28
2018-01-13T08:05:48.726Z,1.26
2018-01-13T08:06:48.140Z,1.33
2018-01-13T08:07:48.378Z,1.28
2018-01-13T08:08:48.413Z,1.32
2018-01-13T08:09:48.098Z,1.22
2018-01-13T08:10:48.597Z,1.28
2018-01-13T08:11:49.784Z,1.21
2018-01-13T08:12:49.672Z,1.28
2018-01-13T08:13:49.602Z,1.21
2018-01-13T08:14:49.539Z,1.28
2018-01-13T08:15:49.309Z,1.3
2018-01-13T08:16:50.356Z,1.26
2018-01-13T08:17:49.977Z,1.29
2018-01-13T08:18:49.790Z,1.24
2018-01-13T08:19:49.653Z,1.3
2018-01-13T08:20:49.628Z,1.29
2018-01-13T08:21:48.524Z,1.29
2018-01-13T08:22:48.804Z,1.35
2018-01-13T08:23:48.795Z,1.29
2018-01-13T08:24:49.485Z,1.3
2018-01-13T08:25:48.988Z,1.24
2018-01-13T08:26:49.703Z,1.28
2018-01-13T08:27:49.434Z,1.29
2018-01-13T08:28:50.255Z,1.33
2018-01-13T08:29:49.892Z,1.33
2018-01-13T08:30:49.881Z,1.33
2018-01-13T08:31:49.704Z,1.33
2018-01-13T08:32:50.567Z,1.28
2018-01-13T08:33:51.539Z,1.35
2018-01-13T08:34:52.760Z,1.32
2018-01-13T08:35:51.268Z,1.32
2018-01-13T08:36:51.493Z,1.35
2018-01-13T08:37:51.787Z,1.29
2018-01-13T08:38:52.035Z,1.35
2018-01-13T08:39:52.163Z,1.36
2018-01-13T08:40:51.427Z,1.33
2018-01-13T08:41:52.167Z,1.35
2018-01-13T08:42:52.740Z,1.38
2018-01-13T08:43:51.118Z,1.35
2018-01-13T08:44:51.496Z,1.38
2018-01-13T08:45:51.458Z,1.29
2018-01-13T08:46:52.199Z,1.33
2018-01-13T08:47:52.195Z,1.3
2018-01-13T08:48:51.972Z,1.36
2018-01-13T08:49:51.602Z,1.33
2018-01-13T08:50:51.583Z,1.29
2018-01-13T08:51:52.640Z,1.39
2018-01-13T08:52:53.576Z,1.42
2018-01-13T08:53:52.249Z,1.38
2018-01-13T08:54:52.353Z,1.36
2018-01-13T08:55:51.679Z,1.4
2018-01-13T08:56:52.004Z,1.4
2018-01-13T08:57:53.470Z,1.38
2018-01-13T08:58:52.818Z,1.4
2018-01-13T08:59:53.169Z,1.4
2018-01-13T09:00:52.947Z,1.39
2018-01-13T09:01:53.444Z,1.28
2018-01-13T09:02:53.341Z,1.26
2018-01-13T09:03:53.470Z,1.33
2018-01-13T09:04:53.774Z,1.36
2018-01-13T09:05:53.986Z,1.36
2018-01-13T09:06:53.213Z,1.35
2018-01-13T09:07:54.738Z,1.29
2018-01-13T09:08:53.803Z,1.32
2018-01-13T09:09:54.433Z,1.22
2018-01-13T09:10:55.835Z,1.22
2018-01-13T09:11:54.081Z,1.26
2018-01-13T09:12:54.861Z,1.2
2018-01-13T09:13:54.170Z,1.22
2018-01-13T09:14:54.485Z,1.33
2018-01-13T09:15:54.505Z,1.24
2018-01-13T09:16:54.488Z,1.26
2018-01-13T09:17:54.526Z,1.21
2018-01-13T09:18:54.524Z,1.14
2018-01-13T09:19:54.727Z,1.18
2018-01-13T09:20:54.257Z,1.17
2018-01-13T09:21:55.532Z,1.29
2018-01-13T09:22:55.234Z,1.2
2018-01-13T09:23:55.382Z,1.33
2018-01-13T09:24:54.974Z,1.29
2018-01-13T09:25:54.857Z,1.24
2018-01-13T09:26:55.188Z,1.32
2018-01-13T09:27:55.201Z,1.3
2018-01-13T09:28:55.153Z,1.2
2018-01-13T09:29:55.494Z,1.22
2018-01-13T09:30:55.060Z,1.32
2018-01-13T09:31:55.136Z,1.26
2018-01-13T09:32:55.173Z,1.2
2018-01-13T09:33:55.253Z,1.28
2018-01-13T09:34:55.306Z,1.28
2018-01-13T09:35:55.315Z,1.24
2018-01-13T09:36:55.088Z,1.21
2018-01-13T09:37:55.793Z,1.21
2018-01-13T09:38:55.681Z,1.28
2018-01-13T09:39:55.612Z,1.24
2018-01-13T09:40:55.058Z,1.35
2018-01-13T09:41:55.902Z,1.39
2018-01-13T09:42:55.390Z,1.38
2018-01-13T09:43:56.054Z,1.42
2018-01-13T09:44:55.713Z,1.38
2018-01-13T09:45:55.992Z,1.36
2018-01-13T09:46:56.125Z,1.42
2018-01-13T09:47:56.516Z,1.38
2018-01-13T09:48:57.014Z,1.33
2018-01-13T09:49:56.521Z,1.38
2018-01-13T09:50:56.752Z,1.4
2018-01-13T09:51:56.747Z,1.39
2018-01-13T09:52:57.242Z,1.39
2018-01-13T09:53:57.319Z,1.4
2018-01-13T09:54:57.083Z,1.35
2018-01-13T09:55:58.157Z,1.38
2018-01-13T09:56:57.313Z,1.38
2018-01-13T09:57:57.720Z,1.4
2018-01-13T09:58:57.382Z,1.4
2018-01-13T09:59:57.659Z,1.33
2018-01-13T10:00:58.002Z,1.38
2018-01-13T10:01:58.471Z,1.39
2018-01-13T10:02:57.431Z,1.42
2018-01-13T10:03:57.766Z,1.35
2018-01-13T10:04:57.696Z,1.44
2018-01-13T10:05:58.297Z,1.53
2018-01-13T10:06:58.163Z,1.57
2018-01-13T10:07:58.313Z,1.64
2018-01-13T10:08:58.359Z,1.64
2018-01-13T10:09:58.547Z,1.64
2018-01-13T10:10:58.312Z,1.68
2018-01-13T10:11:59.660Z,1.75
2018-01-13T10:12:59.444Z,1.72
2018-01-13T10:13:59.252Z,1.74
2018-01-13T10:14:59.037Z,1.68
2018-01-13T10:15:59.035Z,1.74
2018-01-13T10:16:58.341Z,1.75
2018-01-13T10:17:59.027Z,1.72
2018-01-13T10:18:58.734Z,1.87
2018-01-13T10:19:58.329Z,1.89
2018-01-13T10:20:58.647Z,1.87
2018-01-13T10:21:58.707Z,1.84
2018-01-13T10:22:58.936Z,1.92
2018-01-13T10:23:58.688Z,1.93
2018-01-13T10:24:58.532Z,1.97
2018-01-13T10:25:58.773Z,1.86
2018-01-13T10:26:58.750Z,1.94
2018-01-13T10:27:58.671Z,1.98
2018-01-13T10:29:00.296Z,1.87
2018-01-13T10:29:59.139Z,1.9
2018-01-13T10:30:59.847Z,1.87
2018-01-13T10:31:59.392Z,1.87
2018-01-13T10:33:00.690Z,1.92
2018-01-13T10:33:59.735Z,1.93
2018-01-13T10:34:59.651Z,2.06
2018-01-13T10:36:00.163Z,1.93
2018-01-13T10:37:00.420Z,2.05
2018-01-13T10:37:59.902Z,2.05
2018-01-13T10:38:59.280Z,2.34
2018-01-13T10:39:59.001Z,2.48
2018-01-13T10:40:59.499Z,2.98
2018-01-13T10:41:59.273Z,3.46
2018-01-13T10:42:59.874Z,3.61
2018-01-13T10:43:59.607Z,3.57
2018-01-13T10:45:00.444Z,3.42
2018-01-13T10:45:59.893Z,3.16
2018-01-13T10:46:59.892Z,2.96
2018-01-13T10:47:59.910Z,2.69
2018-01-13T10:49:00.434Z,2.34
2018-01-13T10:50:00.541Z,2.16
2018-01-13T10:51:01.197Z,1.93
2018-01-13T10:52:01.889Z,1.89
2018-01-13T10:53:01.285Z,1.76
2018-01-13T10:54:00.293Z,1.68
2018-01-13T10:55:00.526Z,1.74
2018-01-13T10:56:01.384Z,1.61
2018-01-13T10:57:00.618Z,1.65
2018-01-13T10:58:00.697Z,1.65
2018-01-13T10:59:00.601Z,1.65
2018-01-13T11:01:00.832Z,1.58
2018-01-13T11:02:01.342Z,1.61
2018-01-13T11:03:01.599Z,1.54
2018-01-13T11:04:01.627Z,1.48
2018-01-13T11:05:02.126Z,1.6
2018-01-13T11:06:01.471Z,1.47
2018-01-13T11:07:01.685Z,1.53
2018-01-13T11:08:01.805Z,1.51
2018-01-13T11:50:58.947Z,1.18
2018-01-13T11:52:35.706Z,1.18
2018-01-13T11:52:59.504Z,1.2
2018-01-13T11:53:58.915Z,1.17
2018-01-13T11:54:59.224Z,1.21
2018-01-13T11:55:58.990Z,1.17
2018-01-13T11:56:59.038Z,1.17
2018-01-13T11:57:59.365Z,1.14
2018-01-13T11:58:59.617Z,1.17
2018-01-13T11:59:59.491Z,1.08
2018-01-13T12:00:58.817Z,1.08
2018-01-13T12:01:59.633Z,1.11
2018-01-13T12:02:59.343Z,1.11
2018-01-13T12:03:59.100Z,1.1
2018-01-13T12:05:00.728Z,1.11
2018-01-13T12:05:59.401Z,1.18
2018-01-13T12:07:00.300Z,1.08
2018-01-13T12:07:59.657Z,1.21
2018-01-13T12:09:00.199Z,1.04
2018-01-13T12:10:00.240Z,1.18
2018-01-13T12:11:00.212Z,1.2
2018-01-13T12:12:00.741Z,1.15
2018-01-13T12:13:00.385Z,1.24
2018-01-13T12:13:59.779Z,1.07
2018-01-13T12:15:00.274Z,1.2
2018-01-13T12:16:00.573Z,1.11
2018-01-13T12:17:00.532Z,1.1
2018-01-13T12:18:00.519Z,1.08
2018-01-13T12:19:02.354Z,1.14
2018-01-13T12:20:01.565Z,1.08
2018-01-13T12:21:01.606Z,1.14
2018-01-13T12:22:01.850Z,1.07
2018-01-13T12:23:01.564Z,1.04
2018-01-13T12:24:01.365Z,1.12
2018-01-13T12:25:01.726Z,1.04
2018-01-13T12:26:01.854Z,1.08
2018-01-13T12:27:01.708Z,1.07
2018-01-13T12:28:01.858Z,1.1
2018-01-13T12:29:01.730Z,1.12
2018-01-13T12:30:01.760Z,1.12
2018-01-13T12:31:01.785Z,1.1
2018-01-13T12:32:01.559Z,1.08
2018-01-13T12:33:03.386Z,1.04
2018-01-13T12:34:02.884Z,1.12
2018-01-13T12:35:02.895Z,1.11
2018-01-13T12:36:02.908Z,1.11
2018-01-13T12:37:02.385Z,1.15
2018-01-13T12:38:02.361Z,1.1
2018-01-13T12:39:02.645Z,1.02
2018-01-13T12:40:02.572Z,1.02
2018-01-13T12:41:02.774Z,1.03
2018-01-13T12:42:02.862Z,1.03
2018-01-13T12:43:03.444Z,1.02
2018-01-13T12:44:03.143Z,1
2018-01-13T12:45:03.288Z,1.04
2018-01-13T12:46:03.330Z,1.07
2018-01-13T12:47:03.972Z,1.04
2018-01-13T12:48:03.347Z,1
2018-01-13T12:49:03.698Z,1
2018-01-13T12:50:04.048Z,0.99
2018-01-13T12:51:04.012Z,0.99
2018-01-13T12:52:04.216Z,1.07
2018-01-13T12:53:04.118Z,1.04
2018-01-13T12:54:04.054Z,1.08
2018-01-13T12:55:03.981Z,1.08
2018-01-13T12:56:04.260Z,1.02
2018-01-13T12:57:04.437Z,1.03
2018-01-13T12:58:03.872Z,1.04
2018-01-13T12:59:04.592Z,1.02
2018-01-13T13:00:19.810Z,1.03
2018-01-13T13:01:04.920Z,1.02
2018-01-13T13:02:05.144Z,1.03
2018-01-13T13:03:05.426Z,0.99
2018-01-13T13:04:05.169Z,1.04
2018-01-13T13:05:04.899Z,1.03
2018-01-13T13:06:05.473Z,1.02
2018-01-13T13:07:05.240Z,1.03
2018-01-13T13:08:06.008Z,1.03
2018-01-13T13:09:05.948Z,0.99
2018-01-13T13:10:06.242Z,0.94
2018-01-13T13:11:05.967Z,1
2018-01-13T13:12:06.231Z,0.96
2018-01-13T13:13:06.218Z,0.93
2018-01-13T13:14:06.248Z,1
2018-01-13T13:15:06.341Z,0.97
2018-01-13T13:16:06.594Z,1.03
2018-01-13T13:17:06.572Z,0.9
2018-01-13T13:18:06.549Z,0.9
2018-01-13T13:19:06.433Z,0.9
2018-01-13T13:20:06.914Z,0.96
2018-01-13T13:21:06.431Z,0.99
2018-01-13T13:22:07.761Z,0.94
2018-01-13T13:23:07.541Z,0.94
2018-01-13T13:24:07.641Z,0.99
2018-01-13T13:25:07.117Z,0.93
2018-01-13T13:26:07.126Z,0.94
2018-01-13T13:27:07.296Z,0.93
2018-01-13T13:28:06.945Z,0.94
2018-01-13T13:29:07.213Z,0.96
2018-01-13T13:30:07.792Z,0.99
2018-01-13T13:31:07.194Z,0.89
2018-01-13T13:32:07.271Z,0.94
2018-01-13T13:33:07.459Z,0.94
2018-01-13T13:34:07.176Z,0.99
2018-01-13T13:35:08.694Z,1
2018-01-13T13:36:07.610Z,0.9
2018-01-13T13:37:08.733Z,0.89
2018-01-13T13:38:08.258Z,0.92
2018-01-13T13:39:07.400Z,0.96
2018-01-13T13:40:07.675Z,0.92
2018-01-13T13:41:07.255Z,0.85
2018-01-13T13:42:07.394Z,0.93
2018-01-13T13:43:07.459Z,0.82
2018-01-13T13:44:07.687Z,0.85
2018-01-13T13:45:07.615Z,0.74
2018-01-13T13:46:08.100Z,0.82
2018-01-13T13:47:08.571Z,0.9
2018-01-13T13:48:07.992Z,0.81
2018-01-13T13:49:08.239Z,0.84
2018-01-13T13:50:09.014Z,0.84
2018-01-13T13:51:08.759Z,0.81
2018-01-13T13:52:09.156Z,0.85
2018-01-13T13:53:09.169Z,0.76
2018-01-13T13:54:09.188Z,0.78
2018-01-13T13:55:10.050Z,0.86
2018-01-13T13:56:08.993Z,0.84
2018-01-13T13:57:09.718Z,0.85
2018-01-13T13:58:09.434Z,0.85
2018-01-13T13:59:09.129Z,0.9
2018-01-13T14:00:23.879Z,0.89
2018-01-13T14:01:34.184Z,0.85
2018-01-13T14:02:33.884Z,0.85
2018-01-13T14:03:33.888Z,0.84
2018-01-13T14:04:33.926Z,0.89
2018-01-13T14:05:33.930Z,0.92
2018-01-13T14:06:34.336Z,0.92